createdAt,value
2022-08-24T00:00:49.681Z,20.36
2022-08-24T00:01:49.745Z,20.36
2022-08-24T00:02:49.767Z,20.32
2022-08-24T00:03:49.689Z,20.32
2022-08-24T00:04:50.645Z,20.31
2022-08-24T00:05:49.646Z,20.32
2022-08-24T00:06:49.630Z,20.32
2022-08-24T00:07:49.770Z,20.34
2022-08-24T00:08:49.604Z,20.39
2022-08-24T00:09:49.632Z,20.40
2022-08-24T00:10:49.596Z,20.40
2022-08-24T00:11:49.564Z,20.40
2022-08-24T00:12:49.552Z,20.40
2022-08-24T00:13:49.584Z,20.39
2022-08-24T00:14:49.633Z,20.37
2022-08-24T00:15:49.527Z,20.34
2022-08-24T00:16:49.545Z,20.31
2022-08-24T00:17:49.500Z,20.25
2022-08-24T00:18:49.508Z,20.24
2022-08-24T00:19:50.469Z,20.21
2022-08-24T00:20:49.495Z,20.18
2022-08-24T00:21:49.456Z,20.16
2022-08-24T00:22:49.438Z,20.13
2022-08-24T00:23:49.477Z,20.11
2022-08-24T00:24:49.409Z,20.10
2022-08-24T00:25:49.428Z,20.09
2022-08-24T00:26:49.403Z,20.06
2022-08-24T00:27:49.384Z,20.06
2022-08-24T00:28:49.369Z,20.06
2022-08-24T00:29:49.366Z,20.07
2022-08-24T00:30:49.379Z,20.07
2022-08-24T00:31:49.381Z,20.06
2022-08-24T00:32:49.332Z,20.04
2022-08-24T00:33:49.310Z,20.03
2022-08-24T00:34:58.957Z,20.04
2022-08-24T00:35:50.339Z,20.03
2022-08-24T00:36:49.291Z,20.00
2022-08-24T00:37:49.295Z,20.02
2022-08-24T00:38:49.260Z,20.00
2022-08-24T00:39:49.301Z,20.02
2022-08-24T00:40:49.244Z,20.00
2022-08-24T00:41:49.257Z,19.99
2022-08-24T00:42:49.223Z,19.96
2022-08-24T00:43:49.205Z,19.94
2022-08-24T00:44:49.193Z,19.89
2022-08-24T00:45:49.234Z,19.86
2022-08-24T00:46:49.163Z,19.82
2022-08-24T00:47:49.184Z,19.82
2022-08-24T00:48:49.160Z,19.81
2022-08-24T00:49:49.156Z,19.81
2022-08-24T00:50:49.125Z,19.77
2022-08-24T00:51:49.125Z,19.74
2022-08-24T00:52:49.135Z,19.73
2022-08-24T00:53:49.142Z,19.71
2022-08-24T00:54:49.077Z,19.71
2022-08-24T00:55:49.073Z,19.70
2022-08-24T00:56:49.088Z,19.74
2022-08-24T00:57:49.091Z,19.74
2022-08-24T00:58:56.821Z,19.74
2022-08-24T00:59:50.049Z,19.76
2022-08-24T01:00:49.083Z,19.77
2022-08-24T01:01:49.098Z,19.77
2022-08-24T01:02:49.157Z,19.77
2022-08-24T01:03:51.467Z,19.74
2022-08-24T01:04:50.015Z,19.73
2022-08-24T01:05:48.981Z,19.71
2022-08-24T01:06:48.957Z,19.69
2022-08-24T01:07:48.995Z,19.66
2022-08-24T01:08:48.958Z,19.63
2022-08-24T01:09:50.022Z,19.62
2022-08-24T01:10:48.911Z,19.59
2022-08-24T01:11:48.902Z,19.62
2022-08-24T01:13:00.122Z,19.63
2022-08-24T01:13:49.882Z,19.63
2022-08-24T01:14:48.891Z,19.66
2022-08-24T01:15:48.927Z,19.67
2022-08-24T01:16:48.865Z,19.69
2022-08-24T01:17:48.844Z,19.66
2022-08-24T01:18:48.834Z,19.66
2022-08-24T01:19:48.815Z,19.66
2022-08-24T01:20:48.824Z,19.66
2022-08-24T01:21:48.795Z,19.63
2022-08-24T01:22:48.839Z,19.63
2022-08-24T01:23:48.766Z,19.62
2022-08-24T01:24:48.746Z,19.59
2022-08-24T01:25:48.747Z,19.55
2022-08-24T01:26:48.745Z,19.54
2022-08-24T01:27:48.735Z,19.51
2022-08-24T01:28:48.721Z,19.48
2022-08-24T01:29:48.714Z,19.45
2022-08-24T01:30:48.697Z,19.40
2022-08-24T01:31:48.760Z,19.40
2022-08-24T01:32:48.700Z,19.39
2022-08-24T01:33:48.690Z,19.40
2022-08-24T01:34:48.649Z,19.37
2022-08-24T01:35:48.649Z,19.36
2022-08-24T01:36:48.630Z,19.36
2022-08-24T01:37:48.646Z,19.33
2022-08-24T01:38:48.611Z,19.33
2022-08-24T01:39:48.644Z,19.34
2022-08-24T01:40:48.583Z,19.34
2022-08-24T01:41:48.572Z,19.31
2022-08-24T01:42:48.590Z,19.33
2022-08-24T01:43:48.592Z,19.33
2022-08-24T01:44:48.560Z,19.33
2022-08-24T01:45:48.522Z,19.36
2022-08-24T01:46:48.696Z,19.37
2022-08-24T01:47:48.503Z,19.39
2022-08-24T01:48:48.511Z,19.39
2022-08-24T01:49:48.479Z,19.36
2022-08-24T01:50:48.474Z,19.33
2022-08-24T01:51:48.492Z,19.29
2022-08-24T01:53:04.799Z,19.24
2022-08-24T01:53:49.447Z,19.19
2022-08-24T01:54:48.454Z,19.16
2022-08-24T01:55:48.468Z,19.12
2022-08-24T01:56:48.470Z,19.11
2022-08-24T01:57:48.432Z,19.08
2022-08-24T01:58:48.378Z,19.09
2022-08-24T01:59:48.382Z,19.12
2022-08-24T02:00:48.363Z,19.14
2022-08-24T02:01:48.428Z,19.16
2022-08-24T02:02:48.416Z,19.18
2022-08-24T02:03:51.775Z,19.18
2022-08-24T02:04:48.324Z,19.16
2022-08-24T02:05:48.329Z,19.16
2022-08-24T02:06:48.288Z,19.15
2022-08-24T02:07:48.275Z,19.12
2022-08-24T02:08:48.326Z,19.09
2022-08-24T02:09:49.210Z,19.04
2022-08-24T02:10:52.952Z,19.02
2022-08-24T02:11:49.225Z,18.98
2022-08-24T02:12:48.230Z,18.95
2022-08-24T02:13:48.217Z,18.90
2022-08-24T02:14:48.265Z,18.89
2022-08-24T02:15:48.264Z,18.86
2022-08-24T02:16:48.214Z,18.83
2022-08-24T02:17:48.174Z,18.83
2022-08-24T02:18:48.183Z,18.81
2022-08-24T02:19:48.197Z,18.84
2022-08-24T02:20:48.139Z,18.88
2022-08-24T02:21:48.124Z,18.90
2022-08-24T02:22:48.147Z,18.88
2022-08-24T02:23:48.119Z,18.88
2022-08-24T02:24:48.129Z,18.84
2022-08-24T02:25:48.105Z,18.81
2022-08-24T02:26:48.066Z,18.78
2022-08-24T02:27:48.061Z,18.75
2022-08-24T02:28:48.052Z,18.74
2022-08-24T02:29:48.087Z,18.70
2022-08-24T02:30:48.086Z,18.68
2022-08-24T02:31:48.022Z,18.68
2022-08-24T02:32:48.009Z,18.66
2022-08-24T02:33:48.017Z,18.65
2022-08-24T02:34:48.005Z,18.65
2022-08-24T02:35:48.007Z,18.63
2022-08-24T02:36:47.984Z,18.62
2022-08-24T02:37:48.011Z,18.60
2022-08-24T02:38:47.951Z,18.59
2022-08-24T02:39:48.039Z,18.60
2022-08-24T02:40:47.927Z,18.60
2022-08-24T02:41:47.911Z,18.58
2022-08-24T02:42:47.914Z,18.58
2022-08-24T02:43:47.901Z,18.56
2022-08-24T02:44:47.904Z,18.53
2022-08-24T02:45:50.332Z,18.53
2022-08-24T02:46:47.946Z,18.53
2022-08-24T02:47:47.875Z,18.53
2022-08-24T02:48:56.506Z,18.52
2022-08-24T02:49:48.843Z,18.52
2022-08-24T02:50:47.805Z,18.49
2022-08-24T02:51:47.814Z,18.49
2022-08-24T02:52:47.796Z,18.45
2022-08-24T02:53:47.803Z,18.47
2022-08-24T02:54:47.765Z,18.47
2022-08-24T02:55:47.755Z,18.49
2022-08-24T02:56:47.745Z,18.49
2022-08-24T02:57:47.726Z,18.47
2022-08-24T02:58:47.761Z,18.47
2022-08-24T02:59:47.706Z,18.45
2022-08-24T03:00:47.697Z,18.44
2022-08-24T03:01:49.777Z,18.44
2022-08-24T03:02:47.753Z,18.43
2022-08-24T03:03:47.661Z,18.43
2022-08-24T03:04:49.490Z,18.41
2022-08-24T03:05:47.639Z,18.41
2022-08-24T03:06:47.679Z,18.41
2022-08-24T03:07:47.647Z,18.40
2022-08-24T03:08:49.348Z,18.40
2022-08-24T03:09:48.601Z,18.37
2022-08-24T03:10:47.599Z,18.38
2022-08-24T03:11:47.570Z,18.40
2022-08-24T03:12:47.600Z,18.38
2022-08-24T03:13:47.545Z,18.37
2022-08-24T03:14:47.551Z,18.37
2022-08-24T03:15:47.602Z,18.35
2022-08-24T03:16:47.513Z,18.33
2022-08-24T03:17:47.512Z,18.34
2022-08-24T03:18:47.538Z,18.35
2022-08-24T03:19:47.512Z,18.34
2022-08-24T03:20:47.494Z,18.34
2022-08-24T03:21:47.469Z,18.31
2022-08-24T03:22:47.478Z,18.31
2022-08-24T03:23:47.454Z,18.34
2022-08-24T03:24:47.459Z,18.35
2022-08-24T03:25:47.432Z,18.37
2022-08-24T03:26:47.416Z,18.37
2022-08-24T03:27:47.386Z,18.35
2022-08-24T03:28:47.387Z,18.34
2022-08-24T03:29:47.394Z,18.31
2022-08-24T03:30:48.348Z,18.29
2022-08-24T03:31:47.356Z,18.29
2022-08-24T03:32:47.387Z,18.28
2022-08-24T03:33:47.335Z,18.28
2022-08-24T03:34:47.357Z,18.26
2022-08-24T03:35:47.309Z,18.26
2022-08-24T03:36:47.328Z,18.28
2022-08-24T03:37:47.293Z,18.26
2022-08-24T03:38:47.329Z,18.26
2022-08-24T03:39:47.316Z,18.25
2022-08-24T03:40:47.294Z,18.26
2022-08-24T03:41:47.270Z,18.26
2022-08-24T03:42:47.260Z,18.28
2022-08-24T03:43:47.430Z,18.31
2022-08-24T03:44:48.191Z,18.31
2022-08-24T03:45:47.286Z,18.31
2022-08-24T03:46:47.254Z,18.29
2022-08-24T03:47:47.238Z,18.29
2022-08-24T03:48:48.152Z,18.25
2022-08-24T03:49:47.185Z,18.25
2022-08-24T03:50:47.163Z,18.23
2022-08-24T03:51:47.164Z,18.22
2022-08-24T03:52:47.134Z,18.20
2022-08-24T03:53:47.149Z,18.22
2022-08-24T03:54:47.113Z,18.20
2022-08-24T03:55:47.208Z,18.23
2022-08-24T03:56:47.085Z,18.22
2022-08-24T03:57:47.065Z,18.23
2022-08-24T03:58:47.087Z,18.22
2022-08-24T03:59:47.608Z,18.20
2022-08-24T04:00:47.137Z,18.16
2022-08-24T04:01:47.066Z,18.13
2022-08-24T04:02:47.073Z,18.10
2022-08-24T04:03:47.000Z,18.04
2022-08-24T04:04:46.999Z,18.03
2022-08-24T04:05:47.027Z,17.98
2022-08-24T04:06:46.991Z,17.98
2022-08-24T04:07:46.970Z,17.97
2022-08-24T04:08:47.947Z,17.95
2022-08-24T04:09:46.963Z,17.92
2022-08-24T04:10:46.941Z,17.92
2022-08-24T04:11:46.928Z,17.89
2022-08-24T04:12:46.910Z,17.90
2022-08-24T04:13:46.942Z,17.92
2022-08-24T04:14:46.925Z,17.95
2022-08-24T04:15:46.875Z,17.97
2022-08-24T04:16:46.920Z,18.00
2022-08-24T04:17:47.889Z,18.00
2022-08-24T04:18:46.843Z,17.97
2022-08-24T04:19:46.871Z,17.95
2022-08-24T04:20:46.851Z,17.94
2022-08-24T04:21:46.813Z,17.92
2022-08-24T04:22:46.829Z,17.92
2022-08-24T04:23:47.972Z,17.89
2022-08-24T04:24:46.778Z,17.87
2022-08-24T04:25:46.803Z,17.85
2022-08-24T04:26:46.813Z,17.83
2022-08-24T04:27:46.787Z,17.80
2022-08-24T04:28:46.759Z,17.80
2022-08-24T04:29:46.725Z,17.79
2022-08-24T04:30:46.716Z,17.78
2022-08-24T04:31:46.799Z,17.78
2022-08-24T04:32:46.701Z,17.76
2022-08-24T04:33:46.677Z,17.78
2022-08-24T04:34:46.677Z,17.76
2022-08-24T04:35:46.687Z,17.76
2022-08-24T04:36:46.681Z,17.76
2022-08-24T04:37:46.678Z,17.76
2022-08-24T04:38:46.628Z,17.76
2022-08-24T04:39:46.680Z,17.74
2022-08-24T04:40:48.592Z,17.74
2022-08-24T04:41:46.592Z,17.74
2022-08-24T04:42:46.584Z,17.74
2022-08-24T04:43:46.586Z,17.74
2022-08-24T04:44:46.575Z,17.74
2022-08-24T04:45:46.630Z,17.72
2022-08-24T04:46:46.554Z,17.72
2022-08-24T04:47:46.552Z,17.74
2022-08-24T04:48:46.518Z,17.74
2022-08-24T04:49:46.508Z,17.76
2022-08-24T04:50:46.715Z,17.78
2022-08-24T04:51:46.513Z,17.79
2022-08-24T04:52:46.523Z,17.79
2022-08-24T04:53:46.468Z,17.80
2022-08-24T04:54:46.447Z,17.82
2022-08-24T04:55:46.436Z,17.83
2022-08-24T04:56:46.453Z,17.85
2022-08-24T04:57:46.443Z,17.85
2022-08-24T04:58:46.436Z,17.83
2022-08-24T04:59:46.419Z,17.85
2022-08-24T05:00:46.472Z,17.86
2022-08-24T05:01:46.423Z,17.85
2022-08-24T05:02:46.397Z,17.85
2022-08-24T05:03:46.371Z,17.85
2022-08-24T05:04:46.334Z,17.86
2022-08-24T05:05:46.374Z,17.87
2022-08-24T05:06:46.350Z,17.89
2022-08-24T05:07:47.327Z,17.95
2022-08-24T05:08:46.351Z,18.03
2022-08-24T05:09:46.313Z,18.15
2022-08-24T05:10:46.280Z,18.20
2022-08-24T05:11:49.714Z,18.25
2022-08-24T05:12:46.287Z,18.29
2022-08-24T05:13:46.250Z,18.35
2022-08-24T05:14:46.249Z,18.43
2022-08-24T05:15:46.223Z,18.47
2022-08-24T05:16:53.232Z,18.55
2022-08-24T05:17:51.031Z,18.60
2022-08-24T05:18:46.185Z,18.63
2022-08-24T05:19:46.243Z,18.68
2022-08-24T05:20:46.186Z,18.71
2022-08-24T05:21:46.173Z,18.75
2022-08-24T05:22:46.152Z,18.78
2022-08-24T05:23:46.155Z,18.81
2022-08-24T05:24:46.138Z,18.86
2022-08-24T05:25:46.160Z,18.90
2022-08-24T05:26:46.096Z,18.95
2022-08-24T05:27:46.112Z,18.98
2022-08-24T05:28:46.087Z,18.96
2022-08-24T05:29:49.888Z,18.99
2022-08-24T05:30:46.093Z,18.99
2022-08-24T05:31:46.108Z,19.02
2022-08-24T05:32:46.070Z,19.08
2022-08-24T05:33:46.019Z,19.09
2022-08-24T05:34:46.015Z,19.15
2022-08-24T05:35:46.032Z,19.18
2022-08-24T05:36:45.986Z,19.19
2022-08-24T05:37:45.999Z,19.21
2022-08-24T05:38:45.977Z,19.22
2022-08-24T05:39:46.049Z,19.27
2022-08-24T05:40:45.960Z,19.30
2022-08-24T05:41:45.974Z,19.34
2022-08-24T05:42:45.922Z,19.36
2022-08-24T05:43:45.908Z,19.40
2022-08-24T05:44:45.970Z,19.44
2022-08-24T05:45:45.880Z,19.45
2022-08-24T05:46:45.970Z,19.49
2022-08-24T05:47:45.902Z,19.52
2022-08-24T05:48:52.498Z,19.52
2022-08-24T05:49:46.881Z,19.56
2022-08-24T05:50:45.884Z,19.56
2022-08-24T05:51:45.813Z,19.56
2022-08-24T05:52:45.829Z,19.55
2022-08-24T05:53:45.800Z,19.54
2022-08-24T05:54:45.843Z,19.51
2022-08-24T05:55:45.818Z,19.52
2022-08-24T05:56:45.797Z,19.54
2022-08-24T05:57:45.747Z,19.54
2022-08-24T05:58:45.780Z,19.49
2022-08-24T05:59:45.762Z,19.48
2022-08-24T06:00:45.745Z,19.48
2022-08-24T06:01:45.911Z,19.44
2022-08-24T06:02:45.816Z,19.40
2022-08-24T06:03:45.687Z,19.37
2022-08-24T06:04:45.675Z,19.41
2022-08-24T06:05:45.656Z,19.45
2022-08-24T06:06:48.663Z,19.48
2022-08-24T06:07:45.708Z,19.51
2022-08-24T06:08:45.657Z,19.54
2022-08-24T06:09:45.607Z,19.54
2022-08-24T06:10:45.608Z,19.52
2022-08-24T06:11:45.629Z,19.51
2022-08-24T06:12:45.580Z,19.49
2022-08-24T06:13:45.600Z,19.48
2022-08-24T06:14:45.582Z,19.45
2022-08-24T06:15:59.417Z,19.45
2022-08-24T06:16:46.584Z,19.45
2022-08-24T06:17:45.614Z,19.47
2022-08-24T06:18:45.512Z,19.51
2022-08-24T06:19:45.545Z,19.56
2022-08-24T06:20:45.496Z,19.63
2022-08-24T06:21:45.484Z,19.67
2022-08-24T06:22:45.474Z,19.77
2022-08-24T06:23:45.454Z,19.84
2022-08-24T06:24:45.472Z,19.91
2022-08-24T06:25:45.433Z,20.02
2022-08-24T06:26:50.308Z,20.09
2022-08-24T06:27:46.434Z,20.16
2022-08-24T06:28:45.409Z,20.22
2022-08-24T06:29:45.384Z,20.29
2022-08-24T06:30:45.411Z,20.37
2022-08-24T06:31:45.440Z,20.44
2022-08-24T06:32:45.358Z,20.52
2022-08-24T06:33:45.383Z,20.59
2022-08-24T06:34:45.349Z,20.63
2022-08-24T06:35:47.166Z,20.67
2022-08-24T06:36:45.306Z,20.70
2022-08-24T06:37:45.338Z,20.72
2022-08-24T06:38:45.498Z,20.74
2022-08-24T06:39:45.321Z,20.75
2022-08-24T06:40:45.282Z,20.78
2022-08-24T06:41:45.307Z,20.80
2022-08-24T06:42:45.248Z,20.82
2022-08-24T06:43:45.252Z,20.82
2022-08-24T06:44:45.220Z,20.85
2022-08-24T06:45:45.219Z,20.87
2022-08-24T06:46:45.273Z,20.88
2022-08-24T06:47:45.209Z,20.90
2022-08-24T06:48:45.176Z,20.95
2022-08-24T06:49:45.192Z,20.99
2022-08-24T06:50:45.204Z,21.02
2022-08-24T06:51:50.002Z,21.07
2022-08-24T06:52:46.184Z,21.07
2022-08-24T06:53:45.134Z,21.14
2022-08-24T06:54:45.129Z,21.17
2022-08-24T06:55:45.155Z,21.21
2022-08-24T06:56:45.090Z,21.24
2022-08-24T06:57:48.045Z,21.25
2022-08-24T06:58:46.108Z,21.32
2022-08-24T06:59:45.122Z,21.35
2022-08-24T07:00:45.040Z,21.39
2022-08-24T07:01:45.123Z,21.42
2022-08-24T07:02:45.043Z,21.46
2022-08-24T07:03:45.014Z,21.51
2022-08-24T07:04:45.006Z,21.55
2022-08-24T07:05:45.027Z,21.61
2022-08-24T07:06:45.008Z,21.66
2022-08-24T07:07:44.994Z,21.72
2022-08-24T07:08:44.957Z,21.76
2022-08-24T07:09:44.973Z,21.82
2022-08-24T07:10:44.973Z,21.89
2022-08-24T07:11:45.000Z,21.93
2022-08-24T07:12:44.919Z,21.98
2022-08-24T07:13:44.928Z,22.04
2022-08-24T07:14:44.924Z,22.08
2022-08-24T07:15:44.997Z,22.15
2022-08-24T07:16:44.931Z,22.22
2022-08-24T07:17:44.863Z,22.29
2022-08-24T07:18:49.893Z,22.33
2022-08-24T07:19:45.857Z,22.39
2022-08-24T07:20:44.847Z,22.44
2022-08-24T07:21:44.828Z,22.50
2022-08-24T07:22:44.825Z,22.53
2022-08-24T07:23:44.804Z,22.59
2022-08-24T07:24:44.786Z,22.63
2022-08-24T07:25:49.629Z,22.68
2022-08-24T07:26:45.795Z,22.73
2022-08-24T07:27:44.756Z,22.76
2022-08-24T07:28:44.750Z,22.84
2022-08-24T07:29:52.745Z,22.90
2022-08-24T07:30:45.762Z,22.93
2022-08-24T07:31:44.795Z,23.00
2022-08-24T07:32:44.713Z,23.06
2022-08-24T07:33:44.702Z,23.12
2022-08-24T07:34:44.688Z,23.15
2022-08-24T07:35:44.664Z,23.18
2022-08-24T07:36:44.975Z,23.23
2022-08-24T07:37:44.669Z,23.28
2022-08-24T07:38:44.623Z,23.34
2022-08-24T07:39:44.644Z,23.40
2022-08-24T07:41:09.311Z,23.44
2022-08-24T07:42:45.587Z,23.55
2022-08-24T07:43:44.583Z,23.61
2022-08-24T07:44:44.587Z,23.68
2022-08-24T07:45:44.573Z,23.73
2022-08-24T07:46:44.648Z,23.78
2022-08-24T07:47:53.678Z,23.84
2022-08-24T07:48:45.521Z,23.91
2022-08-24T07:49:44.526Z,23.95
2022-08-24T07:50:44.535Z,24.02
2022-08-24T07:51:46.925Z,24.08
2022-08-24T07:52:44.474Z,24.13
2022-08-24T07:53:53.562Z,24.17
2022-08-24T07:54:45.485Z,24.21
2022-08-24T07:55:46.209Z,24.28
2022-08-24T07:56:44.428Z,24.30
2022-08-24T07:57:44.457Z,24.36
2022-08-24T07:58:44.423Z,24.40
2022-08-24T07:59:44.414Z,24.43
2022-08-24T08:00:44.387Z,24.48
2022-08-24T08:01:44.478Z,24.53
2022-08-24T08:02:44.464Z,24.57
2022-08-24T08:03:44.390Z,24.63
2022-08-24T08:04:44.365Z,24.68
2022-08-24T08:05:44.347Z,24.74
2022-08-24T08:06:44.398Z,24.80
2022-08-24T08:07:45.698Z,24.85
2022-08-24T08:08:44.292Z,24.91
2022-08-24T08:09:44.300Z,24.95
2022-08-24T08:10:44.335Z,25.01
2022-08-24T08:11:44.370Z,25.06
2022-08-24T08:12:44.263Z,25.11
2022-08-24T08:13:44.265Z,25.14
2022-08-24T08:14:44.232Z,25.18
2022-08-24T08:15:44.257Z,25.23
2022-08-24T08:16:44.243Z,25.28
2022-08-24T08:17:44.324Z,25.31
2022-08-24T08:18:45.503Z,25.36
2022-08-24T08:19:44.179Z,25.38
2022-08-24T08:20:44.166Z,25.41
2022-08-24T08:21:44.231Z,25.46
2022-08-24T08:22:44.159Z,25.47
2022-08-24T08:23:44.197Z,25.51
2022-08-24T08:24:44.147Z,25.58
2022-08-24T08:25:47.325Z,25.62
2022-08-24T08:26:44.134Z,25.68
2022-08-24T08:28:44.089Z,25.80
2022-08-24T08:29:44.107Z,25.84
2022-08-24T08:30:44.078Z,25.90
2022-08-24T08:31:44.072Z,25.95
2022-08-24T08:32:44.160Z,25.99
2022-08-24T08:33:44.033Z,26.00
2022-08-24T08:34:44.026Z,26.05
2022-08-24T08:35:44.021Z,26.09
2022-08-24T08:36:44.037Z,26.15
2022-08-24T08:37:44.004Z,26.16
2022-08-24T08:38:43.996Z,26.18
2022-08-24T08:39:45.632Z,26.18
2022-08-24T08:40:43.981Z,26.19
2022-08-24T08:41:43.999Z,26.18
2022-08-24T08:42:43.975Z,26.21
2022-08-24T08:43:43.945Z,26.22
2022-08-24T08:44:43.924Z,26.26
2022-08-24T08:45:43.957Z,26.29
2022-08-24T08:46:43.910Z,26.31
2022-08-24T08:47:43.962Z,26.33
2022-08-24T08:48:43.883Z,26.34
2022-08-24T08:49:43.977Z,26.37
2022-08-24T08:50:43.877Z,26.40
2022-08-24T08:51:43.851Z,26.41
2022-08-24T08:52:43.847Z,26.44
2022-08-24T08:53:43.831Z,26.48
2022-08-24T08:54:44.428Z,26.53
2022-08-24T08:55:43.863Z,26.59
2022-08-24T08:56:43.818Z,26.62
2022-08-24T08:57:43.788Z,26.63
2022-08-24T08:58:46.743Z,26.68
2022-08-24T08:59:44.792Z,26.71
2022-08-24T09:00:43.750Z,26.74
2022-08-24T09:01:46.623Z,26.78
2022-08-24T09:02:43.754Z,26.83
2022-08-24T09:03:43.714Z,26.84
2022-08-24T09:04:43.753Z,26.88
2022-08-24T09:05:43.755Z,26.89
2022-08-24T09:06:43.678Z,26.92
2022-08-24T09:07:43.677Z,26.93
2022-08-24T09:08:43.688Z,26.95
2022-08-24T09:09:44.646Z,26.97
2022-08-24T09:10:43.674Z,26.97
2022-08-24T09:11:43.645Z,26.96
2022-08-24T09:12:43.614Z,26.96
2022-08-24T09:13:43.617Z,26.96
2022-08-24T09:14:43.591Z,26.96
2022-08-24T09:15:43.608Z,26.96
2022-08-24T09:16:43.611Z,26.99
2022-08-24T09:17:43.607Z,27.00
2022-08-24T09:18:43.562Z,27.03
2022-08-24T09:19:43.635Z,27.08
2022-08-24T09:20:43.559Z,27.11
2022-08-24T09:21:43.508Z,27.17
2022-08-24T09:22:43.516Z,27.21
2022-08-24T09:23:43.509Z,27.22
2022-08-24T09:24:43.533Z,27.29
2022-08-24T09:25:43.490Z,27.30
2022-08-24T09:26:43.478Z,27.35
2022-08-24T09:27:43.451Z,27.37
2022-08-24T09:28:43.756Z,27.40
2022-08-24T09:29:43.432Z,27.45
2022-08-24T09:30:44.900Z,27.48
2022-08-24T09:31:43.434Z,27.49
2022-08-24T09:32:43.419Z,27.49
2022-08-24T09:33:43.407Z,27.54
2022-08-24T09:34:43.375Z,27.55
2022-08-24T09:35:43.377Z,27.58
2022-08-24T09:36:43.391Z,27.60
2022-08-24T09:37:43.553Z,27.63
2022-08-24T09:38:43.337Z,27.65
2022-08-24T09:39:43.432Z,27.70
2022-08-24T09:40:43.326Z,27.73
2022-08-24T09:41:43.336Z,27.74
2022-08-24T09:42:43.323Z,27.77
2022-08-24T09:43:43.294Z,27.82
2022-08-24T09:44:43.264Z,27.86
2022-08-24T09:45:43.283Z,27.89
2022-08-24T09:46:43.259Z,27.92
2022-08-24T09:47:43.260Z,27.96
2022-08-24T09:48:43.260Z,28.02
2022-08-24T09:49:43.211Z,28.07
2022-08-24T09:50:43.199Z,28.10
2022-08-24T09:51:43.202Z,28.14
2022-08-24T09:52:43.172Z,28.15
2022-08-24T09:53:43.169Z,28.20
2022-08-24T09:54:43.204Z,28.23
2022-08-24T09:55:43.169Z,28.26
2022-08-24T09:56:43.141Z,28.29
2022-08-24T09:58:01.032Z,28.32
2022-08-24T09:58:44.113Z,28.33
2022-08-24T09:59:43.128Z,28.38
2022-08-24T10:00:43.127Z,28.45
2022-08-24T10:01:43.158Z,28.48
2022-08-24T10:02:43.132Z,28.54
2022-08-24T10:03:43.858Z,28.59
2022-08-24T10:04:43.199Z,28.64
2022-08-24T10:05:43.164Z,28.70
2022-08-24T10:06:43.105Z,28.72
2022-08-24T10:07:43.032Z,28.72
2022-08-24T10:08:43.009Z,28.69
2022-08-24T10:09:43.007Z,28.66
2022-08-24T10:10:43.009Z,28.62
2022-08-24T10:11:43.037Z,28.57
2022-08-24T10:12:43.079Z,28.56
2022-08-24T10:13:42.971Z,28.49
2022-08-24T10:14:42.971Z,28.48
2022-08-24T10:15:42.934Z,28.48
2022-08-24T10:16:42.957Z,28.48
2022-08-24T10:17:42.931Z,28.49
2022-08-24T10:18:42.915Z,28.51
2022-08-24T10:19:43.015Z,28.52
2022-08-24T10:20:42.886Z,28.54
2022-08-24T10:21:42.860Z,28.51
2022-08-24T10:22:42.893Z,28.49
2022-08-24T10:23:42.852Z,28.51
2022-08-24T10:24:42.832Z,28.54
2022-08-24T10:25:42.826Z,28.57
2022-08-24T10:26:42.840Z,28.59
2022-08-24T10:27:42.804Z,28.57
2022-08-24T10:28:42.828Z,28.59
2022-08-24T10:29:42.807Z,28.59
2022-08-24T10:30:42.782Z,28.59
2022-08-24T10:31:42.821Z,28.60
2022-08-24T10:32:42.762Z,28.66
2022-08-24T10:33:42.796Z,28.70
2022-08-24T10:34:42.788Z,28.76
2022-08-24T10:35:42.719Z,28.85
2022-08-24T10:36:42.707Z,28.94
2022-08-24T10:37:43.601Z,29.01
2022-08-24T10:38:42.695Z,29.07
2022-08-24T10:39:42.854Z,29.13
2022-08-24T10:40:42.797Z,29.20
2022-08-24T10:41:42.666Z,29.32
2022-08-24T10:42:42.656Z,29.41
2022-08-24T10:43:42.641Z,29.47
2022-08-24T10:44:42.633Z,29.51
2022-08-24T10:45:42.711Z,29.54
2022-08-24T10:46:43.603Z,29.57
2022-08-24T10:47:42.603Z,29.59
2022-08-24T10:48:42.595Z,29.61
2022-08-24T10:49:42.567Z,29.63
2022-08-24T10:50:42.572Z,29.71
2022-08-24T10:51:42.615Z,29.73
2022-08-24T10:52:42.566Z,29.78
2022-08-24T10:53:42.556Z,29.82
2022-08-24T10:54:43.231Z,29.86
2022-08-24T10:55:42.551Z,29.87
2022-08-24T10:56:42.526Z,29.91
2022-08-24T10:57:42.507Z,29.94
2022-08-24T10:58:42.517Z,30.00
2022-08-24T10:59:42.496Z,30.05
2022-08-24T11:00:42.541Z,30.08
2022-08-24T11:01:42.441Z,30.10
2022-08-24T11:02:42.443Z,30.13
2022-08-24T11:03:42.470Z,30.16
2022-08-24T11:04:42.434Z,30.19
2022-08-24T11:05:42.585Z,30.21
2022-08-24T11:06:42.577Z,30.25
2022-08-24T11:07:42.414Z,30.30
2022-08-24T11:08:42.704Z,30.32
2022-08-24T11:09:42.595Z,30.37
2022-08-24T11:10:43.299Z,30.40
2022-08-24T11:11:44.001Z,30.44
2022-08-24T11:12:42.316Z,30.47
2022-08-24T11:13:42.323Z,30.48
2022-08-24T11:14:42.328Z,30.48
2022-08-24T11:15:42.288Z,30.48
2022-08-24T11:16:42.377Z,30.46
2022-08-24T11:17:42.350Z,30.43
2022-08-24T11:18:42.267Z,30.39
2022-08-24T11:19:42.239Z,30.39
2022-08-24T11:20:42.255Z,30.40
2022-08-24T11:21:42.250Z,30.40
2022-08-24T11:22:42.228Z,30.39
2022-08-24T11:23:42.232Z,30.40
2022-08-24T11:24:42.214Z,30.39
2022-08-24T11:25:42.204Z,30.35
2022-08-24T11:26:42.192Z,30.37
2022-08-24T11:27:42.163Z,30.35
2022-08-24T11:28:42.208Z,30.37
2022-08-24T11:29:42.157Z,30.37
2022-08-24T11:30:42.131Z,30.39
2022-08-24T11:31:42.130Z,30.39
2022-08-24T11:32:42.125Z,30.40
2022-08-24T11:33:42.111Z,30.43
2022-08-24T11:34:42.128Z,30.39
2022-08-24T11:35:42.108Z,30.40
2022-08-24T11:36:42.081Z,30.47
2022-08-24T11:37:42.072Z,30.47
2022-08-24T11:38:45.949Z,30.50
2022-08-24T11:39:42.047Z,30.48
2022-08-24T11:40:42.023Z,30.47
2022-08-24T11:41:42.062Z,30.48
2022-08-24T11:42:42.006Z,30.51
2022-08-24T11:43:41.985Z,30.53
2022-08-24T11:44:41.990Z,30.55
2022-08-24T11:45:41.969Z,30.59
2022-08-24T11:46:42.007Z,30.61
2022-08-24T11:47:41.970Z,30.65
2022-08-24T11:48:43.717Z,30.68
2022-08-24T11:49:41.936Z,30.72
2022-08-24T11:50:41.918Z,30.75
2022-08-24T11:51:41.905Z,30.80
2022-08-24T11:52:41.931Z,30.84
2022-08-24T11:54:41.882Z,30.94
2022-08-24T11:55:46.973Z,30.97
2022-08-24T11:56:42.879Z,30.97
2022-08-24T11:57:47.596Z,30.99
2022-08-24T11:58:42.891Z,31.00
2022-08-24T11:59:41.823Z,31.05
2022-08-24T12:00:41.816Z,31.06
2022-08-24T12:01:44.681Z,31.05
2022-08-24T12:02:41.850Z,31.05
2022-08-24T12:03:41.780Z,30.99
2022-08-24T12:04:41.805Z,30.94
2022-08-24T12:05:41.762Z,30.85
2022-08-24T12:06:41.748Z,30.78
2022-08-24T12:07:41.740Z,30.73
2022-08-24T12:08:41.747Z,30.72
2022-08-24T12:09:41.727Z,30.68
2022-08-24T12:10:41.750Z,30.63
2022-08-24T12:11:41.719Z,30.59
2022-08-24T12:12:41.690Z,30.57
2022-08-24T12:13:41.680Z,30.62
2022-08-24T12:14:41.690Z,30.66
2022-08-24T12:15:41.719Z,30.69
2022-08-24T12:16:41.685Z,30.68
2022-08-24T12:17:41.663Z,30.68
2022-08-24T12:18:41.621Z,30.68
2022-08-24T12:19:41.627Z,30.72
2022-08-24T12:20:41.647Z,30.80
2022-08-24T12:21:41.603Z,30.84
2022-08-24T12:22:41.585Z,30.88
2022-08-24T12:23:41.571Z,30.96
2022-08-24T12:24:41.573Z,31.03
2022-08-24T12:25:41.562Z,31.10
2022-08-24T12:26:41.596Z,31.20
2022-08-24T12:27:41.561Z,31.29
2022-08-24T12:28:41.575Z,31.43
2022-08-24T12:29:41.515Z,31.59
2022-08-24T12:30:41.514Z,31.74
2022-08-24T12:31:41.554Z,31.89
2022-08-24T12:32:41.508Z,32.04
2022-08-24T12:33:41.511Z,32.22
2022-08-24T12:34:41.463Z,32.37
2022-08-24T12:35:41.450Z,32.52
2022-08-24T12:36:41.456Z,32.67
2022-08-24T12:37:41.427Z,32.85
2022-08-24T12:38:41.442Z,33.01
2022-08-24T12:39:41.419Z,33.20
2022-08-24T12:40:41.392Z,33.34
2022-08-24T12:41:41.382Z,33.55
2022-08-24T12:42:41.373Z,33.80
2022-08-24T12:43:41.381Z,34.06
2022-08-24T12:44:41.437Z,34.32
2022-08-24T12:45:41.334Z,34.50
2022-08-24T12:46:41.346Z,34.61
2022-08-24T12:47:41.325Z,34.70
2022-08-24T12:48:41.353Z,34.66
2022-08-24T12:49:41.315Z,34.47
2022-08-24T12:50:41.315Z,34.24
2022-08-24T12:51:41.307Z,34.10
2022-08-24T12:52:41.276Z,33.92
2022-08-24T12:53:41.271Z,33.79
2022-08-24T12:54:41.269Z,33.68
2022-08-24T12:55:41.250Z,33.83